sensor_id;sensor_type;location;lat;lon;timestamp;pressure;altitude;pressure_sealevel;temperature;humidity
67931;BME280;63902;52.000;5.954;2022-11-12T00:00:30;102804.38;;;3.56;100.00
67931;BME280;63902;52.000;5.954;2022-11-12T00:01:31;102803.50;;;3.57;100.00
67931;BME280;63902;52.000;5.954;2022-11-12T00:02:31;102803.56;;;3.61;100.00
67931;BME280;63902;52.000;5.954;2022-11-12T00:03:32;102802.69;;;3.60;100.00
67931;BME280;63902;52.000;5.954;2022-11-12T00:04:32;102801.81;;;3.61;100.00
67931;BME280;63902;52.000;5.954;2022-11-12T00:05:33;102798.28;;;3.59;100.00
67931;BME280;63902;52.000;5.954;2022-11-12T00:06:34;102801.78;;;3.59;100.00
67931;BME280;63902;52.000;5.954;2022-11-12T00:07:34;102803.53;;;3.59;100.00
67931;BME280;63902;52.000;5.954;2022-11-12T00:08:35;102802.63;;;3.57;100.00
67931;BME280;63902;52.000;5.954;2022-11-12T00:09:36;102799.06;;;3.55;100.00
67931;BME280;63902;52.000;5.954;2022-11-12T00:10:36;102799.94;;;3.55;100.00
67931;BME280;63902;52.000;5.954;2022-11-12T00:11:37;102806.94;;;3.55;100.00
67931;BME280;63902;52.000;5.954;2022-11-12T00:12:38;102801.69;;;3.53;100.00
67931;BME280;63902;52.000;5.954;2022-11-12T00:13:39;102801.69;;;3.53;100.00
67931;BME280;63902;52.000;5.954;2022-11-12T00:14:39;102800.75;;;3.51;100.00
67931;BME280;63902;52.000;5.954;2022-11-12T00:15:41;102800.72;;;3.50;100.00
67931;BME280;63902;52.000;5.954;2022-11-12T00:16:42;102802.50;;;3.51;100.00
67931;BME280;63902;52.000;5.954;2022-11-12T00:17:42;102795.47;;;3.50;100.00
67931;BME280;63902;52.000;5.954;2022-11-12T00:18:43;102800.75;;;3.51;100.00
67931;BME280;63902;52.000;5.954;2022-11-12T00:19:43;102788.41;;;3.47;100.00
67931;BME280;63902;52.000;5.954;2022-11-12T00:20:43;102803.34;;;3.50;100.00
67931;BME280;63902;52.000;5.954;2022-11-12T00:21:44;102799.84;;;3.49;100.00
67931;BME280;63902;52.000;5.954;2022-11-12T00:22:44;102800.69;;;3.48;100.00
67931;BME280;63902;52.000;5.954;2022-11-12T00:23:45;102797.16;;;3.46;100.00
67931;BME280;63902;52.000;5.954;2022-11-12T00:24:45;102799.78;;;3.46;100.00
67931;BME280;63902;52.000;5.954;2022-11-12T00:25:46;102801.53;;;3.46;100.00
67931;BME280;63902;52.000;5.954;2022-11-12T00:26:46;102796.22;;;3.43;100.00
67931;BME280;63902;52.000;5.954;2022-11-12T00:27:47;102804.91;;;3.42;100.00
67931;BME280;63902;52.000;5.954;2022-11-12T00:28:47;102804.91;;;3.42;100.00
67931;BME280;63902;52.000;5.954;2022-11-12T00:29:48;102810.16;;;3.42;100.00
67931;BME280;63902;52.000;5.954;2022-11-12T00:30:49;102801.41;;;3.41;100.00
67931;BME280;63902;52.000;5.954;2022-11-12T00:31:50;102807.53;;;3.42;100.00
67931;BME280;63902;52.000;5.954;2022-11-12T00:32:50;102803.09;;;3.38;100.00
67931;BME280;63902;52.000;5.954;2022-11-12T00:33:51;102803.09;;;3.38;100.00
67931;BME280;63902;52.000;5.954;2022-11-12T00:34:51;102801.34;;;3.38;100.00
67931;BME280;63902;52.000;5.954;2022-11-12T00:35:52;102796.09;;;3.36;100.00
67931;BME280;63902;52.000;5.954;2022-11-12T00:36:52;102796.09;;;3.36;100.00
67931;BME280;63902;52.000;5.954;2022-11-12T00:37:53;102794.25;;;3.32;100.00
67931;BME280;63902;52.000;5.954;2022-11-12T00:38:53;102793.38;;;3.32;100.00
67931;BME280;63902;52.000;5.954;2022-11-12T00:39:54;102797.78;;;3.34;100.00
67931;BME280;63902;52.000;5.954;2022-11-12T00:40:58;102803.03;;;3.34;100.00
67931;BME280;63902;52.000;5.954;2022-11-12T00:41:58;102801.28;;;3.35;100.00
67931;BME280;63902;52.000;5.954;2022-11-12T00:42:59;102809.16;;;3.35;100.00
67931;BME280;63902;52.000;5.954;2022-11-12T00:43:59;102808.22;;;3.31;100.00
67931;BME280;63902;52.000;5.954;2022-11-12T00:44:59;102803.81;;;3.29;100.00
67931;BME280;63902;52.000;5.954;2022-11-12T00:46:01;102802.13;;;3.32;100.00
67931;BME280;63902;52.000;5.954;2022-11-12T00:47:02;102809.97;;;3.32;100.00
67931;BME280;63902;52.000;5.954;2022-11-12T00:48:02;102804.72;;;3.31;100.00
67931;BME280;63902;52.000;5.954;2022-11-12T00:49:03;102806.44;;;3.30;100.00
67931;BME280;63902;52.000;5.954;2022-11-12T00:50:05;102809.94;;;3.29;100.00
67931;BME280;63902;52.000;5.954;2022-11-12T00:51:06;102815.16;;;3.29;100.00
67931;BME280;63902;52.000;5.954;2022-11-12T00:52:07;102815.16;;;3.28;100.00
67931;BME280;63902;52.000;5.954;2022-11-12T00:53:07;102812.47;;;3.26;100.00
67931;BME280;63902;52.000;5.954;2022-11-12T00:54:08;102812.44;;;3.25;100.00
67931;BME280;63902;52.000;5.954;2022-11-12T00:55:08;102804.56;;;3.23;100.00
67931;BME280;63902;52.000;5.954;2022-11-12T00:56:09;102801.88;;;3.22;100.00
67931;BME280;63902;52.000;5.954;2022-11-12T00:57:09;102803.75;;;3.26;100.00
67931;BME280;63902;52.000;5.954;2022-11-12T00:58:10;102808.97;;;3.26;100.00
67931;BME280;63902;52.000;5.954;2022-11-12T00:59:11;102810.69;;;3.24;100.00
67931;BME280;63902;52.000;5.954;2022-11-12T01:00:14;102806.25;;;3.21;100.00
67931;BME280;63902;52.000;5.954;2022-11-12T01:01:17;102800.06;;;3.19;100.00
67931;BME280;63902;52.000;5.954;2022-11-12T01:02:17;102801.88;;;3.20;100.00
67931;BME280;63902;52.000;5.954;2022-11-12T01:03:18;102802.69;;;3.19;100.00
67931;BME280;63902;52.000;5.954;2022-11-12T01:04:18;102800.06;;;3.18;100.00
67931;BME280;63902;52.000;5.954;2022-11-12T01:05:19;102793.94;;;3.17;100.00
67931;BME280;63902;52.000;5.954;2022-11-12T01:06:21;102795.69;;;3.18;100.00
67931;BME280;63902;52.000;5.954;2022-11-12T01:07:22;102804.44;;;3.19;100.00
67931;BME280;63902;52.000;5.954;2022-11-12T01:08:22;102802.69;;;3.19;100.00
67931;BME280;63902;52.000;5.954;2022-11-12T01:09:23;102807.94;;;3.19;100.00
67931;BME280;63902;52.000;5.954;2022-11-12T01:10:23;102806.19;;;3.18;100.00
67931;BME280;63902;52.000;5.954;2022-11-12T01:11:26;102800.88;;;3.15;100.00
67931;BME280;63902;52.000;5.954;2022-11-12T01:12:26;102803.50;;;3.15;100.00
67931;BME280;63902;52.000;5.954;2022-11-12T01:13:27;102798.25;;;3.15;100.00
67931;BME280;63902;52.000;5.954;2022-11-12T01:14:27;102797.34;;;3.13;100.00
67931;BME280;63902;52.000;5.954;2022-11-12T01:15:28;102800.88;;;3.15;100.00
67931;BME280;63902;52.000;5.954;2022-11-12T01:16:33;102800.81;;;3.12;100.00
67931;BME280;63902;52.000;5.954;2022-11-12T01:17:34;102804.38;;;3.14;100.00
67931;BME280;63902;52.000;5.954;2022-11-12T01:18:34;102809.56;;;3.12;100.00
67931;BME280;63902;52.000;5.954;2022-11-12T01:19:35;102801.59;;;3.08;100.00
67931;BME280;63902;52.000;5.954;2022-11-12T01:20:36;102804.22;;;3.08;100.00
67931;BME280;63902;52.000;5.954;2022-11-12T01:21:39;102806.88;;;3.09;100.00
67931;BME280;63902;52.000;5.954;2022-11-12T01:22:39;102808.56;;;3.07;100.00
67931;BME280;63902;52.000;5.954;2022-11-12T01:23:41;102812.06;;;3.06;100.00
67931;BME280;63902;52.000;5.954;2022-11-12T01:24:41;102806.75;;;3.03;100.00
67931;BME280;63902;52.000;5.954;2022-11-12T01:25:42;102810.38;;;3.08;100.00
67931;BME280;63902;52.000;5.954;2022-11-12T01:26:42;102813.00;;;3.08;100.00
67931;BME280;63902;52.000;5.954;2022-11-12T01:27:43;102813.00;;;3.08;100.00
67931;BME280;63902;52.000;5.954;2022-11-12T01:28:43;102814.69;;;3.08;100.00
67931;BME280;63902;52.000;5.954;2022-11-12T01:29:44;102812.06;;;3.06;100.00
67931;BME280;63902;52.000;5.954;2022-11-12T01:30:44;102807.63;;;3.04;100.00
67931;BME280;63902;52.000;5.954;2022-11-12T01:31:46;102807.63;;;3.04;100.00
67931;BME280;63902;52.000;5.954;2022-11-12T01:32:46;102804.97;;;3.02;100.00
67931;BME280;63902;52.000;5.954;2022-11-12T01:33:51;102808.44;;;3.01;100.00
67931;BME280;63902;52.000;5.954;2022-11-12T01:34:51;102809.25;;;2.99;100.00
67931;BME280;63902;52.000;5.954;2022-11-12T01:35:52;102815.44;;;3.01;100.00
67931;BME280;63902;52.000;5.954;2022-11-12T01:36:52;102811.00;;;2.98;100.00
67931;BME280;63902;52.000;5.954;2022-11-12T01:37:52;102801.41;;;2.99;100.00
67931;BME280;63902;52.000;5.954;2022-11-12T01:38:54;102804.88;;;2.98;100.00
67931;BME280;63902;52.000;5.954;2022-11-12T01:39:54;102800.47;;;2.97;100.00
67931;BME280;63902;52.000;5.954;2022-11-12T01:40:55;102796.09;;;2.96;100.00
67931;BME280;63902;52.000;5.954;2022-11-12T01:41:55;102797.84;;;2.97;100.00
67931;BME280;63902;52.000;5.954;2022-11-12T01:42:56;102798.72;;;2.96;100.00
67931;BME280;63902;52.000;5.954;2022-11-12T01:44:10;102797.78;;;2.94;100.00
67931;BME280;63902;52.000;5.954;2022-11-12T01:45:12;102796.06;;;2.94;100.00
67931;BME280;63902;52.000;5.954;2022-11-12T01:46:17;102793.44;;;2.94;100.00
67931;BME280;63902;52.000;5.954;2022-11-12T01:47:22;102782.91;;;2.92;100.00
67931;BME280;63902;52.000;5.954;2022-11-12T01:48:27;102787.22;;;2.90;100.00
67931;BME280;63902;52.000;5.954;2022-11-12T01:49:32;102788.94;;;2.88;100.00
67931;BME280;63902;52.000;5.954;2022-11-12T01:50:37;102778.44;;;2.87;100.00
67931;BME280;63902;52.000;5.954;2022-11-12T01:51:41;102773.13;;;2.85;100.00
67931;BME280;63902;52.000;5.954;2022-11-12T01:52:46;102778.38;;;2.84;100.00
67931;BME280;63902;52.000;5.954;2022-11-12T01:53:49;102771.34;;;2.83;100.00
67931;BME280;63902;52.000;5.954;2022-11-12T01:54:53;102775.75;;;2.84;100.00
67931;BME280;63902;52.000;5.954;2022-11-12T01:55:54;102779.25;;;2.84;100.00
67931;BME280;63902;52.000;5.954;2022-11-12T01:56:56;102779.25;;;2.84;100.00
67931;BME280;63902;52.000;5.954;2022-11-12T01:58:01;102778.28;;;2.81;100.00
67931;BME280;63902;52.000;5.954;2022-11-12T01:59:07;102777.47;;;2.83;100.00
67931;BME280;63902;52.000;5.954;2022-11-12T02:00:10;102775.69;;;2.81;100.00
67931;BME280;63902;52.000;5.954;2022-11-12T02:01:11;102772.19;;;2.80;100.00
67931;BME280;63902;52.000;5.954;2022-11-12T02:02:12;102782.66;;;2.80;100.00
67931;BME280;63902;52.000;5.954;2022-11-12T02:03:16;102780.88;;;2.79;100.00
67931;BME280;63902;52.000;5.954;2022-11-12T02:04:18;102780.88;;;2.79;100.00
67931;BME280;63902;52.000;5.954;2022-11-12T02:05:20;102781.72;;;2.78;100.00
67931;BME280;63902;52.000;5.954;2022-11-12T02:06:22;102779.03;;;2.75;100.00
67931;BME280;63902;52.000;5.954;2022-11-12T02:07:23;102777.31;;;2.76;100.00
67931;BME280;63902;52.000;5.954;2022-11-12T02:08:25;102780.78;;;2.75;100.00
67931;BME280;63902;52.000;5.954;2022-11-12T02:09:27;102778.16;;;2.75;100.00
67931;BME280;63902;52.000;5.954;2022-11-12T02:10:28;102782.50;;;2.74;100.00
67931;BME280;63902;52.000;5.954;2022-11-12T02:11:29;102786.84;;;2.74;100.00
67931;BME280;63902;52.000;5.954;2022-11-12T02:12:29;102781.63;;;2.74;100.00
67931;BME280;63902;52.000;5.954;2022-11-12T02:13:30;102779.84;;;2.73;100.00
67931;BME280;63902;52.000;5.954;2022-11-12T02:14:31;102771.94;;;2.69;100.00
67931;BME280;63902;52.000;5.954;2022-11-12T02:15:32;102771.94;;;2.69;100.00
67931;BME280;63902;52.000;5.954;2022-11-12T02:16:34;102762.22;;;2.65;100.00
67931;BME280;63902;52.000;5.954;2022-11-12T02:17:35;102764.03;;;2.68;100.00
67931;BME280;63902;52.000;5.954;2022-11-12T02:18:37;102761.44;;;2.69;100.00
67931;BME280;63902;52.000;5.954;2022-11-12T02:19:38;102762.31;;;2.70;100.00
67931;BME280;63902;52.000;5.954;2022-11-12T02:20:38;102762.34;;;2.72;100.00
67931;BME280;63902;52.000;5.954;2022-11-12T02:21:40;102765.00;;;2.73;100.00
67931;BME280;63902;52.000;5.954;2022-11-12T02:22:41;102766.81;;;2.76;100.00
67931;BME280;63902;52.000;5.954;2022-11-12T02:23:41;102765.94;;;2.75;100.00
67931;BME280;63902;52.000;5.954;2022-11-12T02:24:42;102766.84;;;2.77;100.00
67931;BME280;63902;52.000;5.954;2022-11-12T02:25:42;102754.59;;;2.76;100.00
67931;BME280;63902;52.000;5.954;2022-11-12T02:26:45;102765.94;;;2.75;100.00
67931;BME280;63902;52.000;5.954;2022-11-12T02:27:46;102763.28;;;2.74;100.00
67931;BME280;63902;52.000;5.954;2022-11-12T02:28:47;102768.50;;;2.74;100.00
67931;BME280;63902;52.000;5.954;2022-11-12T02:29:48;102758.78;;;2.68;100.00
67931;BME280;63902;52.000;5.954;2022-11-12T02:30:48;102763.22;;;2.71;100.00
67931;BME280;63902;52.000;5.954;2022-11-12T02:31:49;102759.66;;;2.67;100.00
67931;BME280;63902;52.000;5.954;2022-11-12T02:32:49;102771.88;;;2.68;100.00
67931;BME280;63902;52.000;5.954;2022-11-12T02:33:50;102759.66;;;2.67;100.00
67931;BME280;63902;52.000;5.954;2022-11-12T02:34:50;102767.50;;;2.67;100.00
67931;BME280;63902;52.000;5.954;2022-11-12T02:35:51;102760.38;;;2.61;100.00
67931;BME280;63902;52.000;5.954;2022-11-12T02:36:53;102774.41;;;2.63;100.00
67931;BME280;63902;52.000;5.954;2022-11-12T02:37:53;102775.22;;;2.61;100.00
67931;BME280;63902;52.000;5.954;2022-11-12T02:38:54;102767.38;;;2.62;100.00
67931;BME280;63902;52.000;5.954;2022-11-12T02:39:54;102768.25;;;2.63;100.00
67931;BME280;63902;52.000;5.954;2022-11-12T02:40:55;102771.88;;;2.66;100.00
67931;BME280;63902;52.000;5.954;2022-11-12T02:41:55;102769.25;;;2.66;100.00
67931;BME280;63902;52.000;5.954;2022-11-12T02:42:56;102766.63;;;2.68;100.00
67931;BME280;63902;52.000;5.954;2022-11-12T02:43:56;102771.00;;;2.67;100.00
67931;BME280;63902;52.000;5.954;2022-11-12T02:44:56;102772.75;;;2.67;100.00
67931;BME280;63902;52.000;5.954;2022-11-12T02:45:57;102768.25;;;2.63;100.00
67931;BME280;63902;52.000;5.954;2022-11-12T02:46:57;102770.88;;;2.63;100.00
67931;BME280;63902;52.000;5.954;2022-11-12T02:47:58;102772.66;;;2.64;100.00
67931;BME280;63902;52.000;5.954;2022-11-12T02:48:58;102768.25;;;2.63;100.00
67931;BME280;63902;52.000;5.954;2022-11-12T02:49:59;102769.94;;;2.59;100.00
67931;BME280;63902;52.000;5.954;2022-11-12T02:50:59;102767.38;;;2.61;100.00
67931;BME280;63902;52.000;5.954;2022-11-12T02:52:01;102770.88;;;2.61;100.00
67931;BME280;63902;52.000;5.954;2022-11-12T02:53:01;102770.88;;;2.63;100.00
67931;BME280;63902;52.000;5.954;2022-11-12T02:54:02;102761.25;;;2.62;100.00
67931;BME280;63902;52.000;5.954;2022-11-12T02:55:03;102771.69;;;2.60;100.00
67931;BME280;63902;52.000;5.954;2022-11-12T02:56:04;102765.63;;;2.61;100.00
67931;BME280;63902;52.000;5.954;2022-11-12T02:57:05;102770.00;;;2.61;100.00
67931;BME280;63902;52.000;5.954;2022-11-12T02:58:05;102765.56;;;2.58;100.00
67931;BME280;63902;52.000;5.954;2022-11-12T02:59:05;102766.47;;;2.60;100.00
67931;BME280;63902;52.000;5.954;2022-11-12T03:00:08;102770.00;;;2.62;100.00
67931;BME280;63902;52.000;5.954;2022-11-12T03:01:09;102766.56;;;2.63;100.00
67931;BME280;63902;52.000;5.954;2022-11-12T03:02:10;102773.50;;;2.63;100.00
67931;BME280;63902;52.000;5.954;2022-11-12T03:03:10;102781.38;;;2.63;100.00
67931;BME280;63902;52.000;5.954;2022-11-12T03:04:10;102768.25;;;2.63;100.00
67931;BME280;63902;52.000;5.954;2022-11-12T03:05:11;102765.63;;;2.61;100.00
67931;BME280;63902;52.000;5.954;2022-11-12T03:06:12;102774.38;;;2.62;100.00
67931;BME280;63902;52.000;5.954;2022-11-12T03:07:14;102767.38;;;2.62;100.00
67931;BME280;63902;52.000;5.954;2022-11-12T03:08:14;102766.50;;;2.62;100.00
67931;BME280;63902;52.000;5.954;2022-11-12T03:09:14;102767.31;;;2.59;100.00
67931;BME280;63902;52.000;5.954;2022-11-12T03:10:15;102771.69;;;2.59;100.00
67931;BME280;63902;52.000;5.954;2022-11-12T03:11:16;102749.59;;;2.49;100.00
67931;BME280;63902;52.000;5.954;2022-11-12T03:12:17;102759.28;;;2.52;100.00
67931;BME280;63902;52.000;5.954;2022-11-12T03:13:17;102766.38;;;2.56;100.00
67931;BME280;63902;52.000;5.954;2022-11-12T03:14:18;102763.75;;;2.56;100.00
67931;BME280;63902;52.000;5.954;2022-11-12T03:15:19;102761.06;;;2.54;100.00
67931;BME280;63902;52.000;5.954;2022-11-12T03:16:19;102765.50;;;2.55;100.00
67931;BME280;63902;52.000;5.954;2022-11-12T03:17:20;102763.69;;;2.53;100.00
67931;BME280;63902;52.000;5.954;2022-11-12T03:18:20;102761.06;;;2.53;100.00
67931;BME280;63902;52.000;5.954;2022-11-12T03:19:20;102759.31;;;2.53;100.00
67931;BME280;63902;52.000;5.954;2022-11-12T03:20:21;102757.63;;;2.55;100.00
67931;BME280;63902;52.000;5.954;2022-11-12T03:21:21;102758.53;;;2.57;100.00
67931;BME280;63902;52.000;5.954;2022-11-12T03:22:23;102755.88;;;2.56;100.00
67931;BME280;63902;52.000;5.954;2022-11-12T03:23:25;102755.97;;;2.59;100.00
67931;BME280;63902;52.000;5.954;2022-11-12T03:24:25;102755.97;;;2.59;100.00
67931;BME280;63902;52.000;5.954;2022-11-12T03:25:27;102754.09;;;2.55;100.00
67931;BME280;63902;52.000;5.954;2022-11-12T03:26:27;102750.72;;;2.59;100.00
67931;BME280;63902;52.000;5.954;2022-11-12T03:27:28;102750.72;;;2.59;100.00
67931;BME280;63902;52.000;5.954;2022-11-12T03:28:28;102757.72;;;2.60;100.00
67931;BME280;63902;52.000;5.954;2022-11-12T03:29:29;102749.94;;;2.63;100.00
67931;BME280;63902;52.000;5.954;2022-11-12T03:30:32;102745.50;;;2.60;100.00
67931;BME280;63902;52.000;5.954;2022-11-12T03:31:33;102746.44;;;2.62;100.00
67931;BME280;63902;52.000;5.954;2022-11-12T03:32:33;102756.09;;;2.65;100.00
67931;BME280;63902;52.000;5.954;2022-11-12T03:33:34;102762.16;;;2.62;100.00
67931;BME280;63902;52.000;5.954;2022-11-12T03:34:34;102764.75;;;2.61;100.00
67931;BME280;63902;52.000;5.954;2022-11-12T03:35:35;102764.75;;;2.61;100.00
67931;BME280;63902;52.000;5.954;2022-11-12T03:36:36;102748.78;;;2.52;100.00
67931;BME280;63902;52.000;5.954;2022-11-12T03:37:38;102758.69;;;2.63;100.00
67931;BME280;63902;52.000;5.954;2022-11-12T03:38:38;102757.84;;;2.64;100.00
67931;BME280;63902;52.000;5.954;2022-11-12T03:39:39;102752.53;;;2.63;100.00
67931;BME280;63902;52.000;5.954;2022-11-12T03:40:39;102745.59;;;2.63;100.00
67931;BME280;63902;52.000;5.954;2022-11-12T03:41:39;102765.72;;;2.66;100.00
67931;BME280;63902;52.000;5.954;2022-11-12T03:42:44;102764.84;;;2.65;100.00
67931;BME280;63902;52.000;5.954;2022-11-12T03:43:44;102757.84;;;2.64;100.00
67931;BME280;63902;52.000;5.954;2022-11-12T03:44:45;102757.84;;;2.64;100.00
67931;BME280;63902;52.000;5.954;2022-11-12T03:45:45;102759.56;;;2.64;100.00
67931;BME280;63902;52.000;5.954;2022-11-12T03:46:46;102755.22;;;2.64;100.00
67931;BME280;63902;52.000;5.954;2022-11-12T03:47:48;102752.59;;;2.64;100.00
67931;BME280;63902;52.000;5.954;2022-11-12T03:48:48;102750.00;;;2.66;100.00
67931;BME280;63902;52.000;5.954;2022-11-12T03:49:49;102752.53;;;2.63;100.00
67931;BME280;63902;52.000;5.954;2022-11-12T03:50:49;102755.22;;;2.64;100.00
67931;BME280;63902;52.000;5.954;2022-11-12T03:51:50;102743.78;;;2.61;100.00
67931;BME280;63902;52.000;5.954;2022-11-12T03:52:54;102752.59;;;2.64;100.00
67931;BME280;63902;52.000;5.954;2022-11-12T03:53:55;102746.50;;;2.65;100.00
67931;BME280;63902;52.000;5.954;2022-11-12T03:54:55;102750.00;;;2.66;100.00
67931;BME280;63902;52.000;5.954;2022-11-12T03:55:55;102751.06;;;2.74;100.00
67931;BME280;63902;52.000;5.954;2022-11-12T03:56:56;102750.28;;;2.78;100.00
67931;BME280;63902;52.000;5.954;2022-11-12T03:57:57;102758.16;;;2.78;100.00
67931;BME280;63902;52.000;5.954;2022-11-12T03:58:57;102754.66;;;2.79;100.00
67931;BME280;63902;52.000;5.954;2022-11-12T03:59:58;102752.97;;;2.81;100.00
67931;BME280;63902;52.000;5.954;2022-11-12T04:00:58;102752.91;;;2.80;100.00
67931;BME280;63902;52.000;5.954;2022-11-12T04:01:58;102761.59;;;2.76;100.00
67931;BME280;63902;52.000;5.954;2022-11-12T04:02:59;102752.78;;;2.72;100.00
67931;BME280;63902;52.000;5.954;2022-11-12T04:03:59;102755.41;;;2.74;100.00
67931;BME280;63902;52.000;5.954;2022-11-12T04:05:00;102761.53;;;2.74;100.00
67931;BME280;63902;52.000;5.954;2022-11-12T04:06:00;102756.28;;;2.73;100.00
67931;BME280;63902;52.000;5.954;2022-11-12T04:07:01;102760.59;;;2.71;100.00
67931;BME280;63902;52.000;5.954;2022-11-12T04:08:04;102754.47;;;2.70;100.00
67931;BME280;63902;52.000;5.954;2022-11-12T04:09:05;102755.34;;;2.71;100.00
67931;BME280;63902;52.000;5.954;2022-11-12T04:10:06;102750.97;;;2.71;100.00
67931;BME280;63902;52.000;5.954;2022-11-12T04:11:08;102759.84;;;2.76;100.00
67931;BME280;63902;52.000;5.954;2022-11-12T04:12:09;102761.59;;;2.77;100.00
67931;BME280;63902;52.000;5.954;2022-11-12T04:13:09;102757.28;;;2.78;100.00
67931;BME280;63902;52.000;5.954;2022-11-12T04:14:10;102752.84;;;2.75;100.00
67931;BME280;63902;52.000;5.954;2022-11-12T04:15:10;102756.28;;;2.74;100.00
67931;BME280;63902;52.000;5.954;2022-11-12T04:16:12;102756.28;;;2.73;100.00
67931;BME280;63902;52.000;5.954;2022-11-12T04:17:13;102764.09;;;2.71;100.00
67931;BME280;63902;52.000;5.954;2022-11-12T04:18:13;102768.44;;;2.69;100.00
67931;BME280;63902;52.000;5.954;2022-11-12T04:19:14;102763.25;;;2.72;100.00
67931;BME280;63902;52.000;5.954;2022-11-12T04:20:15;102764.13;;;2.73;100.00
67931;BME280;63902;52.000;5.954;2022-11-12T04:21:15;102763.25;;;2.72;100.00
67931;BME280;63902;52.000;5.954;2022-11-12T04:22:16;102758.84;;;2.71;100.00
67931;BME280;63902;52.000;5.954;2022-11-12T04:23:18;102766.69;;;2.69;100.00
67931;BME280;63902;52.000;5.954;2022-11-12T04:24:22;102757.84;;;2.66;100.00
67931;BME280;63902;52.000;5.954;2022-11-12T04:25:23;102759.56;;;2.64;100.00
67931;BME280;63902;52.000;5.954;2022-11-12T04:26:23;102761.34;;;2.65;100.00
67931;BME280;63902;52.000;5.954;2022-11-12T04:27:26;102763.03;;;2.63;100.00
67931;BME280;63902;52.000;5.954;2022-11-12T04:28:26;102767.38;;;2.62;100.00
67931;BME280;63902;52.000;5.954;2022-11-12T04:29:27;102764.75;;;2.61;100.00
67931;BME280;63902;52.000;5.954;2022-11-12T04:30:27;102765.56;;;2.60;100.00
67931;BME280;63902;52.000;5.954;2022-11-12T04:31:28;102759.47;;;2.59;100.00
67931;BME280;63902;52.000;5.954;2022-11-12T04:32:29;102769.06;;;2.59;100.00
67931;BME280;63902;52.000;5.954;2022-11-12T04:33:29;102764.69;;;2.58;100.00
67931;BME280;63902;52.000;5.954;2022-11-12T04:34:30;102760.28;;;2.57;100.00
67931;BME280;63902;52.000;5.954;2022-11-12T04:35:30;102762.81;;;2.54;100.00
67931;BME280;63902;52.000;5.954;2022-11-12T04:36:30;102754.94;;;2.52;100.00
67931;BME280;63902;52.000;5.954;2022-11-12T04:37:32;102756.63;;;2.50;100.00
67931;BME280;63902;52.000;5.954;2022-11-12T04:38:34;102749.59;;;2.47;100.00
67931;BME280;63902;52.000;5.954;2022-11-12T04:39:35;102756.56;;;2.47;100.00
67931;BME280;63902;52.000;5.954;2022-11-12T04:40:35;102754.81;;;2.47;100.00
67931;BME280;63902;52.000;5.954;2022-11-12T04:41:36;102753.03;;;2.45;100.00
67931;BME280;63902;52.000;5.954;2022-11-12T04:42:36;102752.16;;;2.46;100.00
67931;BME280;63902;52.000;5.954;2022-11-12T04:43:37;102751.25;;;2.44;100.00
67931;BME280;63902;52.000;5.954;2022-11-12T04:44:37;102753.81;;;2.42;100.00
67931;BME280;63902;52.000;5.954;2022-11-12T04:45:38;102751.22;;;2.42;100.00
67931;BME280;63902;52.000;5.954;2022-11-12T04:46:39;102751.22;;;2.42;100.00
67931;BME280;63902;52.000;5.954;2022-11-12T04:47:40;102752.94;;;2.42;100.00
67931;BME280;63902;52.000;5.954;2022-11-12T04:48:41;102759.94;;;2.41;100.00
67931;BME280;63902;52.000;5.954;2022-11-12T04:49:41;102754.63;;;2.40;100.00
67931;BME280;63902;52.000;5.954;2022-11-12T04:50:43;102747.63;;;2.39;100.00
67931;BME280;63902;52.000;5.954;2022-11-12T04:51:44;102749.34;;;2.37;100.00
67931;BME280;63902;52.000;5.954;2022-11-12T04:52:45;102753.69;;;2.36;100.00
67931;BME280;63902;52.000;5.954;2022-11-12T04:53:47;102751.03;;;2.35;100.00
67931;BME280;63902;52.000;5.954;2022-11-12T04:54:47;102754.50;;;2.34;100.00
67931;BME280;63902;52.000;5.954;2022-11-12T04:55:49;102757.97;;;2.33;100.00
67931;BME280;63902;52.000;5.954;2022-11-12T04:56:49;102754.44;;;2.32;100.00
67931;BME280;63902;52.000;5.954;2022-11-12T04:57:49;102759.75;;;2.34;100.00
67931;BME280;63902;52.000;5.954;2022-11-12T04:58:50;102757.97;;;2.33;100.00
67931;BME280;63902;52.000;5.954;2022-11-12T04:59:50;102755.34;;;2.33;100.00
67931;BME280;63902;52.000;5.954;2022-11-12T05:00:51;102753.63;;;2.33;100.00
67931;BME280;63902;52.000;5.954;2022-11-12T05:01:51;102752.75;;;2.33;100.00
67931;BME280;63902;52.000;5.954;2022-11-12T05:02:52;102754.44;;;2.31;100.00
67931;BME280;63902;52.000;5.954;2022-11-12T05:03:52;102754.38;;;2.29;100.00
67931;BME280;63902;52.000;5.954;2022-11-12T05:04:53;102751.81;;;2.32;100.00
67931;BME280;63902;52.000;5.954;2022-11-12T05:05:59;102753.56;;;2.32;100.00
67931;BME280;63902;52.000;5.954;2022-11-12T05:07:00;102743.94;;;2.31;100.00
67931;BME280;63902;52.000;5.954;2022-11-12T05:08:01;102744.78;;;2.30;100.00
67931;BME280;63902;52.000;5.954;2022-11-12T05:09:03;102746.53;;;2.29;100.00
67931;BME280;63902;52.000;5.954;2022-11-12T05:10:04;102737.78;;;2.27;100.00
67931;BME280;63902;52.000;5.954;2022-11-12T05:11:04;102744.03;;;2.34;100.00
67931;BME280;63902;52.000;5.954;2022-11-12T05:12:05;102744.88;;;2.33;100.00
67931;BME280;63902;52.000;5.954;2022-11-12T05:13:06;102737.91;;;2.33;100.00
67931;BME280;63902;52.000;5.954;2022-11-12T05:14:06;102737.84;;;2.32;100.00
67931;BME280;63902;52.000;5.954;2022-11-12T05:15:08;102734.34;;;2.31;100.00
67931;BME280;63902;52.000;5.954;2022-11-12T05:16:10;102736.13;;;2.32;100.00
67931;BME280;63902;52.000;5.954;2022-11-12T05:17:10;102737.03;;;2.33;100.00
67931;BME280;63902;52.000;5.954;2022-11-12T05:18:11;102730.88;;;2.32;100.00
67931;BME280;63902;52.000;5.954;2022-11-12T05:19:11;102733.47;;;2.31;100.00